Time;durP1;ratioP1;P1;durP2;ratioP2;P2;SDS_P1;SDS_P2;PMS_P1;PMS_P2;Temp;Humidity;BMP_temperature;BMP_pressure;BME280_temperature;BME280_humidity;BME280_pressure;Samples;Min_cycle;Max_cycle;Signal;HPM_P1;HPM_P2
2023/06/19 00:00:24;;;;;;;14.50;12.90;;;;;;;23.09;54.64;99477.91;105634;1255;70282;-80
2023/06/19 00:02:52;;;;;;;15.30;13.80;;;;;;;23.08;54.88;99475.09;105709;1257;74111;-78
2023/06/19 00:05:23;;;;;;;15.30;13.70;;;;;;;23.08;55.01;99472.42;105810;1256;60430;-80
2023/06/19 00:07:51;;;;;;;15.20;13.60;;;;;;;23.07;54.64;99473.67;105851;1257;60406;-81
2023/06/19 00:10:19;;;;;;;15.80;14.20;;;;;;;23.06;53.65;99470.14;105704;1261;73697;-79
2023/06/19 00:12:47;;;;;;;15.90;14.30;;;;;;;23.08;53.41;99471.51;105949;1257;70800;-77
2023/06/19 00:15:14;;;;;;;19.60;14.40;;;;;;;23.10;53.70;99469.95;107360;1254;71083;-78
2023/06/19 00:17:42;;;;;;;14.80;13.00;;;;;;;23.12;53.60;99474.52;107268;1257;60530;-78
2023/06/19 00:20:10;;;;;;;15.00;13.50;;;;;;;23.13;53.29;99471.02;107491;1254;60543;-76
2023/06/19 00:22:37;;;;;;;15.20;13.40;;;;;;;23.16;52.97;99471.59;106203;1259;73827;-79
2023/06/19 00:25:05;;;;;;;14.70;13.30;;;;;;;23.18;52.95;99464.88;106885;1253;70403;-80
2023/06/19 00:27:35;;;;;;;15.20;13.50;;;;;;;23.19;53.13;99468.46;108333;1256;71448;-79
2023/06/19 00:30:04;;;;;;;14.00;12.60;;;;;;;23.19;53.82;99460.98;108293;1256;60925;-79
2023/06/19 00:32:45;;;;;;;14.20;12.80;;;;;;;23.18;53.72;99461.42;106613;1257;59325;-80
2023/06/19 00:35:15;;;;;;;15.00;13.60;;;;;;;23.17;53.62;99463.14;106576;1257;73160;-78
2023/06/19 00:37:45;;;;;;;14.20;12.70;;;;;;;23.16;53.66;99460.21;105920;1261;69069;-81
2023/06/19 00:40:21;;;;;;;14.00;12.60;;;;;;;23.16;53.71;99458.85;105686;1254;74020;-80
2023/06/19 00:42:49;;;;;;;14.20;12.80;;;;;;;23.15;53.48;99455.37;105674;1256;60467;-80
2023/06/19 00:45:17;;;;;;;14.00;12.70;;;;;;;23.15;53.41;99453.91;105683;1257;60770;-79
2023/06/19 00:47:44;;;;;;;14.80;13.30;;;;;;;23.16;53.49;99456.68;105726;1257;73885;-82
2023/06/19 00:50:12;;;;;;;15.50;13.70;;;;;;;23.15;54.12;99459.23;106153;1254;70372;-78
2023/06/19 00:52:39;;;;;;;14.80;13.40;;;;;;;23.14;54.52;99458.88;107251;1257;71377;-77
2023/06/19 00:55:09;;;;;;;15.90;13.80;;;;;;;23.12;54.96;99457.79;106052;1262;60539;-80
2023/06/19 00:57:37;;;;;;;15.60;14.00;;;;;;;23.10;55.52;99471.85;105966;1262;60123;-78
2023/06/19 01:00:05;;;;;;;14.40;13.20;;;;;;;23.06;55.82;99478.33;105796;1255;73856;-77
2023/06/19 01:02:34;;;;;;;15.10;13.70;;;;;;;22.99;55.49;99473.23;106001;1259;69290;-79
2023/06/19 01:05:02;;;;;;;15.50;14.10;;;;;;;22.92;55.89;99473.77;105773;1257;71702;-76
2023/06/19 01:07:41;;;;;;;15.80;14.00;;;;;;;22.86;56.11;99473.33;106795;1254;60316;-79
2023/06/19 01:10:14;;;;;;;16.20;14.30;;;;;;;22.81;56.35;99472.30;106692;1257;60316;-79
2023/06/19 01:12:50;;;;;;;16.40;14.70;;;;;;;22.79;56.55;99474.83;105993;1257;72869;-80
2023/06/19 01:15:18;;;;;;;16.90;14.00;;;;;;;22.77;56.91;99481.30;105946;1257;69739;-79
2023/06/19 01:17:46;;;;;;;16.40;14.50;;;;;;;22.75;57.31;99479.49;105905;1262;71556;-80
2023/06/19 01:20:14;;;;;;;17.30;15.20;;;;;;;22.67;57.52;99473.95;107554;1254;60406;-80
2023/06/19 01:22:46;;;;;;;15.80;14.20;;;;;;;22.63;57.83;99476.48;108603;1250;59835;31
2023/06/19 01:25:16;;;;;;;17.90;16.00;;;;;;;22.58;58.00;99474.60;109477;1257;72758;-81
2023/06/19 01:27:47;;;;;;;17.20;15.60;;;;;;;22.57;57.96;99475.78;109318;1253;70702;-85
2023/06/19 01:30:14;;;;;;;20.10;17.50;;;;;;;22.53;58.10;99482.94;109386;1254;74170;-85
2023/06/19 01:32:49;;;;;;;15.90;14.30;;;;;;;22.51;58.30;99484.11;109399;1256;59331;-85
2023/06/19 01:35:19;;;;;;;16.40;14.90;;;;;;;22.49;58.14;99483.17;109622;1253;58878;-87
2023/06/19 01:37:49;;;;;;;17.10;15.40;;;;;;;22.50;58.29;99483.19;107819;1254;73133;-87
2023/06/19 01:40:20;;;;;;;17.50;15.00;;;;;;;22.50;58.56;99486.98;107082;1253;70974;-84
2023/06/19 01:42:55;;;;;;;16.40;14.40;;;;;;;22.47;59.05;99484.83;106975;1254;72503;-86
2023/06/19 01:45:25;;;;;;;16.40;14.60;;;;;;;22.46;58.71;99478.31;106700;1258;60479;-85
2023/06/19 01:47:54;;;;;;;16.20;14.60;;;;;;;22.45;58.48;99483.34;106209;1255;61308;-86
2023/06/19 01:50:46;;;;;;;17.00;15.40;;;;;;;22.41;58.47;99477.28;106867;1255;73916;-85
2023/06/19 01:53:15;;;;;;;15.80;14.40;;;;;;;22.45;58.29;99483.98;106206;1259;70010;-83
2023/06/19 01:55:43;;;;;;;16.20;14.30;;;;;;;22.45;58.12;99479.70;107077;1254;72207;-87
2023/06/19 01:58:23;;;;;;;15.10;13.70;;;;;;;22.48;58.07;99481.54;108989;1254;60526;-88
2023/06/19 02:00:53;;;;;;;15.20;13.60;;;;;;;22.51;57.81;99479.83;109354;1253;58984;-83
2023/06/19 02:03:23;;;;;;;15.10;13.70;;;;;;;22.54;57.62;99483.65;109218;1253;74955;-79
2023/06/19 02:05:54;;;;;;;18.30;14.20;;;;;;;22.57;57.56;99484.55;108919;1254;69272;-81
2023/06/19 02:08:22;;;;;;;14.90;13.50;;;;;;;22.60;57.52;99484.54;109287;1254;73604;-83
2023/06/19 02:10:51;;;;;;;15.90;14.20;;;;;;;22.63;57.38;99486.40;108508;1254;59006;-82
2023/06/19 02:13:18;;;;;;;15.70;14.10;;;;;;;22.64;57.09;99485.94;108945;1253;61683;-82
2023/06/19 02:15:46;;;;;;;15.10;13.10;;;;;;;22.66;57.05;99490.72;109256;1253;72535;-84
2023/06/19 02:18:15;;;;;;;14.70;13.40;;;;;;;22.68;57.02;99493.45;109275;1253;68637;-85
2023/06/19 02:20:44;;;;;;;14.20;12.80;;;;;;;22.71;56.88;99492.93;109046;1253;71473;-80
2023/06/19 02:23:12;;;;;;;14.30;12.90;;;;;;;22.73;56.73;99488.84;108996;1254;58771;-78
2023/06/19 02:25:40;;;;;;;14.20;13.00;;;;;;;22.74;56.78;99488.05;109572;1252;58774;-77
2023/06/19 02:28:16;;;;;;;13.90;12.60;;;;;;;22.77;56.68;99490.56;109360;1253;71852;-82
2023/06/19 02:30:44;;;;;;;13.80;12.50;;;;;;;22.78;56.59;99486.19;109282;1253;68729;-78
2023/06/19 02:33:13;;;;;;;13.60;12.40;;;;;;;22.81;56.64;99491.20;109148;1254;71820;-81
2023/06/19 02:35:41;;;;;;;13.60;12.10;;;;;;;22.82;56.64;99491.10;109547;1251;58975;-83
2023/06/19 02:50:01;;;;;;;13.70;12.40;;;;;;;23.31;55.74;99493.80;106469;1284;612778;-81
2023/06/19 02:52:28;;;;;;;15.20;12.60;;;;;;;23.42;55.37;99495.86;108552;1265;105640;-82
2023/06/19 02:54:55;;;;;;;15.20;13.20;;;;;;;23.38;55.48;99491.68;108594;1266;59728;-83
2023/06/19 02:57:22;;;;;;;13.90;12.40;;;;;;;23.35;55.53;99493.75;109257;1254;58302;-81
2023/06/19 02:59:49;;;;;;;14.50;12.90;;;;;;;23.32;55.58;99495.14;108921;1253;69066;-82
2023/06/19 03:02:16;;;;;;;15.50;12.90;;;;;;;23.31;55.62;99492.20;109216;1254;71496;-84
2023/06/19 03:04:44;;;;;;;14.40;12.90;;;;;;;23.31;55.63;99493.08;109174;1254;59168;-82
2023/06/19 03:07:13;;;;;;;12.90;11.60;;;;;;;23.31;55.42;99491.11;109021;1253;58979;-79
2023/06/19 03:09:40;;;;;;;12.40;11.40;;;;;;;23.31;55.37;99491.86;108693;1253;70894;-81
2023/06/19 03:12:09;;;;;;;13.70;12.00;;;;;;;23.30;55.23;99490.84;108906;1254;69734;-82
2023/06/19 03:14:37;;;;;;;13.10;11.80;;;;;;;23.31;55.05;99494.10;108880;1254;71427;-84
2023/06/19 03:17:05;;;;;;;12.70;11.40;;;;;;;23.29;55.00;99495.44;108612;1253;59528;-86
2023/06/19 03:19:34;;;;;;;13.50;12.20;;;;;;;23.28;54.99;99494.39;109054;1254;61842;-80
2023/06/19 03:22:02;;;;;;;13.50;12.20;;;;;;;23.30;55.11;99494.73;109182;1253;71843;-80
2023/06/19 03:24:30;;;;;;;19.00;12.30;;;;;;;23.33;55.33;99493.19;109389;1253;69107;-82
2023/06/19 03:27:10;;;;;;;18.50;13.60;;;;;;;23.35;55.11;99498.52;108017;1253;71139;-85
2023/06/19 03:29:38;;;;;;;14.50;12.90;;;;;;;23.34;54.89;99496.16;108936;1253;60060;-84
2023/06/19 03:32:08;;;;;;;13.50;12.20;;;;;;;23.36;54.95;99500.69;108030;1254;59360;-84
2023/06/19 03:34:35;;;;;;;12.70;11.50;;;;;;;23.38;54.93;99497.78;106409;1260;60698;-85
2023/06/19 03:37:06;;;;;;;14.50;12.20;;;;;;;23.39;54.64;99497.09;107967;1253;69108;-84
2023/06/19 03:39:35;;;;;;;13.00;11.70;;;;;;;23.39;54.59;99498.16;107756;1254;73776;-81
2023/06/19 03:42:06;;;;;;;15.30;12.80;;;;;;;23.38;54.61;99498.70;108600;1254;59534;-86
2023/06/19 03:44:35;;;;;;;12.80;11.00;;;;;;;23.35;54.58;99492.19;108867;1254;59166;-86
2023/06/19 03:47:02;;;;;;;13.60;12.10;;;;;;;23.37;54.65;99492.35;108850;1254;72204;-86
2023/06/19 03:49:31;;;;;;;16.40;12.20;;;;;;;23.36;54.60;99489.25;108171;1257;69632;-84
2023/06/19 03:51:58;;;;;;;12.70;11.40;;;;;;;23.35;54.87;99484.01;106722;1257;59707;-85
2023/06/19 03:54:26;;;;;;;12.40;11.30;;;;;;;23.38;54.80;99491.48;106943;1260;59688;-81
2023/06/19 03:56:54;;;;;;;12.70;11.50;;;;;;;23.37;54.71;99491.77;106351;1254;60209;-86
2023/06/19 03:59:20;;;;;;;12.70;11.30;;;;;;;23.35;54.91;99491.64;106380;1254;72377;-83
2023/06/19 04:01:47;;;;;;;11.80;10.40;;;;;;;23.35;54.88;99491.64;106223;1256;70727;-80
2023/06/19 04:04:16;;;;;;;13.20;10.60;;;;;;;23.38;54.94;99495.08;106457;1256;72230;-80
2023/06/19 04:06:43;;;;;;;12.50;11.20;;;;;;;23.39;54.96;99494.26;106641;1254;60370;-83
2023/06/19 04:09:10;;;;;;;15.10;11.90;;;;;;;23.38;55.11;99495.48;107283;1254;59503;-84
2023/06/19 04:11:38;;;;;;;13.80;12.30;;;;;;;23.35;55.26;99488.40;106791;1258;60111;-80
2023/06/19 04:14:06;;;;;;;11.80;10.70;;;;;;;23.35;55.36;99492.40;105914;1261;59290;-82
2023/06/19 04:16:32;;;;;;;13.60;11.30;;;;;;;23.39;55.44;99490.79;106033;1254;73188;-81
2023/06/19 04:19:00;;;;;;;16.10;11.70;;;;;;;23.40;55.53;99492.75;107661;1256;59663;-78
2023/06/19 04:21:26;;;;;;;13.00;11.50;;;;;;;23.42;55.75;99495.44;108483;1255;59506;-80
2023/06/19 04:23:53;;;;;;;13.80;12.30;;;;;;;23.47;55.78;99495.68;108730;1255;72892;-81
2023/06/19 04:26:21;;;;;;;14.10;11.60;;;;;;;23.50;55.75;99496.42;108081;1257;69013;-84
2023/06/19 04:28:49;;;;;;;15.00;12.30;;;;;;;23.51;55.76;99487.86;108304;1259;71704;-86
2023/06/19 04:31:21;;;;;;;13.10;11.80;;;;;;;23.54;55.86;99491.95;107874;1257;60665;-81
2023/06/19 04:33:49;;;;;;;13.40;12.10;;;;;;;23.60;55.88;99495.46;106771;1255;61353;-84
2023/06/19 04:36:18;;;;;;;12.70;10.90;;;;;;;23.65;55.84;99494.41;106993;1256;71629;-81
2023/06/19 04:38:45;;;;;;;17.60;12.50;;;;;;;23.70;55.82;99493.95;106418;1259;69034;-81
2023/06/19 04:41:12;;;;;;;12.90;11.30;;;;;;;23.75;55.83;99492.90;106564;1257;71995;-82
2023/06/19 04:43:41;;;;;;;14.00;11.50;;;;;;;23.81;55.70;99493.14;106028;1259;59640;-82
2023/06/19 04:46:08;;;;;;;13.10;11.50;;;;;;;23.82;55.72;99497.05;106038;1260;60199;-79
2023/06/19 04:48:36;;;;;;;12.00;10.90;;;;;;;23.86;55.84;99501.48;106054;1254;73979;-80
2023/06/19 04:51:03;;;;;;;12.90;11.60;;;;;;;23.87;55.81;99506.42;108178;1254;69013;-81
2023/06/19 04:53:31;;;;;;;14.60;11.90;;;;;;;23.88;55.53;99498.06;108026;1257;71487;-80
2023/06/19 04:55:58;;;;;;;12.70;11.50;;;;;;;23.89;55.50;99503.45;107535;1256;59651;-80
2023/06/19 04:58:28;;;;;;;15.70;13.30;;;;;;;23.92;55.34;99501.45;106203;1254;60418;-81
2023/06/19 05:00:55;;;;;;;14.40;11.70;;;;;;;23.94;55.14;99498.20;106249;1254;73006;-84
2023/06/19 05:03:24;;;;;;;15.10;11.70;;;;;;;23.97;55.02;99496.28;106518;1254;68536;-83
2023/06/19 05:05:51;;;;;;;13.20;11.80;;;;;;;24.03;54.94;99503.85;106994;1254;72496;-84
2023/06/19 05:08:18;;;;;;;13.90;12.40;;;;;;;24.11;55.07;99504.05;107507;1256;60123;-79
2023/06/19 05:10:45;;;;;;;13.50;11.60;;;;;;;24.17;54.82;99504.03;106162;1254;60371;-80
2023/06/19 05:13:13;;;;;;;15.80;12.60;;;;;;;24.20;54.88;99501.77;105887;1259;72931;-76
2023/06/19 05:15:40;;;;;;;13.00;11.80;;;;;;;24.22;54.70;99507.16;105887;1254;70645;-78
2023/06/19 05:18:06;;;;;;;15.90;12.20;;;;;;;24.25;54.73;99504.30;107471;1256;72559;-77
2023/06/19 05:20:35;;;;;;;15.30;12.50;;;;;;;24.28;54.70;99507.41;107595;1255;59224;-78
2023/06/19 05:23:02;;;;;;;17.00;12.90;;;;;;;24.34;54.50;99511.83;106341;1254;60735;-80
2023/06/19 05:25:31;;;;;;;18.30;14.50;;;;;;;24.38;54.45;99508.92;106105;1254;73111;-84
2023/06/19 05:27:58;;;;;;;14.40;12.90;;;;;;;24.43;54.50;99508.39;107135;1254;69315;-82
2023/06/19 05:30:25;;;;;;;15.90;13.10;;;;;;;24.50;54.46;99509.30;106418;1254;71398;-80
2023/06/19 05:32:53;;;;;;;16.00;12.60;;;;;;;24.54;54.43;99508.09;105918;1254;60409;-84
2023/06/19 05:35:20;;;;;;;14.50;13.00;;;;;;;24.55;54.54;99508.47;106475;1257;59493;-84
2023/06/19 05:37:46;;;;;;;17.10;13.10;;;;;;;24.56;54.61;99504.35;106363;1256;71652;-79
2023/06/19 05:40:14;;;;;;;15.00;13.30;;;;;;;24.62;54.58;99506.55;106069;1254;70216;-79
2023/06/19 05:42:40;;;;;;;16.10;13.80;;;;;;;24.70;54.48;99505.64;106304;1254;71195;-78
2023/06/19 05:45:08;;;;;;;16.90;12.10;;;;;;;24.76;54.18;99505.71;106718;1256;60219;-80
2023/06/19 05:47:36;;;;;;;15.90;13.70;;;;;;;24.81;54.32;99509.80;106614;1259;60092;-78
2023/06/19 05:50:04;;;;;;;14.90;13.00;;;;;;;24.84;54.20;99513.50;106248;1257;73031;-79
2023/06/19 05:52:31;;;;;;;14.80;13.20;;;;;;;24.85;54.13;99518.23;105998;1257;68960;-79
2023/06/19 05:55:00;;;;;;;19.40;14.20;;;;;;;24.85;54.29;99517.20;106044;1254;73079;-80
2023/06/19 05:57:28;;;;;;;17.40;13.90;;;;;;;24.82;54.44;99521.48;106894;1257;59800;-82
2023/06/19 05:59:54;;;;;;;14.60;13.10;;;;;;;24.85;54.48;99524.96;106322;1256;60264;-79
2023/06/19 06:02:21;;;;;;;18.50;13.70;;;;;;;24.88;54.48;99524.11;105857;1257;73158;-71
2023/06/19 06:04:48;;;;;;;17.10;13.80;;;;;;;24.95;54.51;99523.58;105687;1257;70272;-71
2023/06/19 06:07:15;;;;;;;15.50;13.70;;;;;;;25.05;54.57;99522.02;105698;1261;74334;-73
2023/06/19 06:09:42;;;;;;;20.60;13.00;;;;;;;25.17;54.52;99524.16;105453;1257;60287;-72
2023/06/19 06:12:08;;;;;;;17.40;14.30;;;;;;;25.23;54.60;99521.52;105783;1258;59470;-73
2023/06/19 06:14:35;;;;;;;17.00;14.10;;;;;;;25.26;54.75;99521.21;105504;1258;73500;-72
2023/06/19 06:17:02;;;;;;;16.20;13.90;;;;;;;25.29;54.67;99522.58;105796;1254;70083;-73
2023/06/19 06:19:29;;;;;;;17.10;14.30;;;;;;;25.31;54.95;99518.39;105775;1259;71610;-73
2023/06/19 06:21:59;;;;;;;15.20;13.60;;;;;;;25.37;55.05;99517.90;105792;1254;60360;-69
2023/06/19 06:24:26;;;;;;;18.80;14.40;;;;;;;25.49;55.00;99523.61;105728;1254;60163;-70
2023/06/19 06:26:53;;;;;;;18.60;14.30;;;;;;;25.65;54.61;99520.56;105458;1259;73430;-72
2023/06/19 06:29:20;;;;;;;16.20;14.70;;;;;;;25.78;54.32;99520.72;105728;1254;70966;-71
2023/06/19 06:31:47;;;;;;;16.90;13.90;;;;;;;25.85;54.04;99514.28;105611;1254;72771;-72
2023/06/19 06:34:14;;;;;;;15.40;14.10;;;;;;;25.92;54.04;99514.18;105734;1254;60075;-73
2023/06/19 06:36:41;;;;;;;17.20;14.30;;;;;;;26.01;53.74;99513.57;105539;1257;60959;-74
2023/06/19 06:39:28;;;;;;;17.30;14.00;;;;;;;26.08;53.38;99515.89;105866;1258;72895;-73
2023/06/19 06:41:55;;;;;;;15.00;13.50;;;;;;;26.12;53.55;99517.46;105430;1256;69141;-73
2023/06/19 06:46:42;;;;;;;15.60;14.10;;;;;;;26.23;53.11;99512.97;103056;1288;601269;-72
2023/06/19 06:49:11;;;;;;;17.60;14.20;;;;;;;26.26;52.84;99513.50;104967;1267;60189;-74
2023/06/19 06:51:38;;;;;;;15.50;14.00;;;;;;;26.31;52.83;99511.90;104844;1266;60039;-74
2023/06/19 06:54:06;;;;;;;15.10;13.60;;;;;;;26.36;52.61;99509.22;104803;1267;73209;-74
2023/06/19 06:56:33;;;;;;;14.30;12.80;;;;;;;26.37;52.28;99511.11;104959;1271;70359;-75
2023/06/19 06:59:01;;;;;;;15.90;14.20;;;;;;;26.39;51.46;99510.67;105662;1256;72831;-71
2023/06/19 07:01:28;;;;;;;14.40;13.00;;;;;;;26.40;50.91;99505.55;105610;1253;274600;-75
2023/06/19 07:03:56;;;;;;;14.90;13.40;;;;;;;26.37;50.82;99507.03;105957;1253;59288;-72
2023/06/19 07:06:23;;;;;;;13.70;12.30;;;;;;;26.42;50.92;99502.77;105850;1257;70994;-74
2023/06/19 07:08:51;;;;;;;15.10;13.30;;;;;;;26.47;49.65;99506.11;105810;1258;69103;-73
2023/06/19 07:11:18;;;;;;;15.70;13.10;;;;;;;26.44;49.92;99504.94;105760;1252;72685;-74
2023/06/19 07:13:46;;;;;;;16.70;12.90;;;;;;;26.43;50.44;99504.23;105838;1253;59706;-74
2023/06/19 07:16:13;;;;;;;15.50;13.20;;;;;;;26.48;50.39;99505.96;105667;1255;59770;-75
2023/06/19 07:18:41;;;;;;;16.10;14.40;;;;;;;26.56;50.01;99508.70;105871;1254;73416;-72
2023/06/19 07:21:12;;;;;;;14.80;13.30;;;;;;;26.60;49.64;99509.63;105888;1253;69028;-73
2023/06/19 07:23:40;;;;;;;13.50;12.20;;;;;;;26.67;49.29;99512.04;105831;1253;72648;-74
2023/06/19 07:26:09;;;;;;;15.00;13.60;;;;;;;26.72;48.91;99513.50;105764;1254;59661;-72
2023/06/19 07:28:36;;;;;;;14.60;12.90;;;;;;;26.79;48.94;99516.07;105584;1260;59997;-73
2023/06/19 07:31:03;;;;;;;18.10;14.30;;;;;;;26.88;49.15;99514.94;105828;1257;73485;-74
2023/06/19 07:33:31;;;;;;;14.40;13.00;;;;;;;26.92;49.07;99513.55;105672;1253;70441;-72
2023/06/19 07:35:58;;;;;;;17.00;14.20;;;;;;;26.91;49.14;99515.09;105519;1260;72682;-74
2023/06/19 07:38:26;;;;;;;14.30;12.90;;;;;;;26.88;49.15;99514.80;105690;1253;62185;-73
2023/06/19 07:40:53;;;;;;;14.20;12.80;;;;;;;26.91;48.30;99519.06;105713;1253;59886;-74
2023/06/19 07:43:24;;;;;;;17.10;13.00;;;;;;;26.93;48.17;99515.61;105570;1253;71725;-75
2023/06/19 07:45:51;;;;;;;14.50;13.10;;;;;;;27.01;48.31;99517.46;105775;1258;69824;-76
2023/06/19 07:48:19;;;;;;;15.80;14.20;;;;;;;27.13;48.37;99516.80;105562;1256;71520;-74
2023/06/19 07:50:46;;;;;;;13.90;12.60;;;;;;;27.23;48.23;99519.41;105517;1260;59769;-74
2023/06/19 07:53:14;;;;;;;15.70;14.30;;;;;;;27.36;48.41;99524.89;105729;1254;59698;-72
2023/06/19 07:55:41;;;;;;;16.70;14.50;;;;;;;27.50;49.00;99526.25;105398;1259;72864;-74
2023/06/19 07:58:09;;;;;;;18.40;14.60;;;;;;;27.60;49.72;99535.77;105623;1256;69398;-74
2023/06/19 08:00:36;;;;;;;16.20;14.60;;;;;;;27.73;49.97;99531.56;105705;1256;72815;-74
2023/06/19 08:03:04;;;;;;;19.00;15.70;;;;;;;27.85;50.05;99532.49;105557;1254;60343;-72
2023/06/19 08:05:32;;;;;;;16.00;14.40;;;;;;;27.93;49.99;99537.52;105783;1255;59513;-74
2023/06/19 08:08:00;;;;;;;15.80;14.30;;;;;;;27.94;49.70;99537.77;105572;1260;73174;-73
2023/06/19 08:10:27;;;;;;;23.00;16.50;;;;;;;27.96;49.48;99537.54;105665;1255;68811;-74
2023/06/19 08:12:55;;;;;;;16.50;14.90;;;;;;;28.08;49.50;99535.72;105835;1255;71646;-73
2023/06/19 08:15:23;;;;;;;16.90;15.10;;;;;;;28.24;49.18;99538.66;105878;1258;59844;-70
2023/06/19 08:17:50;;;;;;;16.80;15.00;;;;;;;28.35;48.70;99537.56;105839;1257;60053;-73
2023/06/19 08:20:19;;;;;;;17.30;15.70;;;;;;;28.40;48.72;99545.58;105775;1254;73632;-72
2023/06/19 08:22:47;;;;;;;15.30;13.80;;;;;;;28.50;48.23;99547.83;105721;1254;72379;-74
2023/06/19 08:25:14;;;;;;;16.20;14.80;;;;;;;28.56;47.83;99550.13;105582;1260;72603;-74
2023/06/19 08:27:45;;;;;;;20.80;14.30;;;;;;;28.64;47.92;99550.52;105708;1256;60936;-74
2023/06/19 08:30:12;;;;;;;14.60;13.20;;;;;;;28.83;47.35;99551.73;105684;1256;60539;-72
2023/06/19 08:32:39;;;;;;;15.80;14.20;;;;;;;29.00;46.77;99552.17;105642;1261;73122;-73
2023/06/19 08:35:07;;;;;;;15.20;13.30;;;;;;;29.15;46.36;99556.24;105735;1256;70007;-72
2023/06/19 08:37:35;;;;;;;14.40;13.00;;;;;;;29.27;45.35;99552.95;105717;1257;73232;-73
2023/06/19 08:40:08;;;;;;;15.00;13.10;;;;;;;29.32;44.76;99555.71;105805;1256;59639;-73
2023/06/19 08:42:37;;;;;;;13.80;12.50;;;;;;;29.31;44.77;99556.38;105878;1256;60530;-74
2023/06/19 08:45:06;;;;;;;13.60;12.40;;;;;;;29.39;44.40;99554.41;105392;1255;72764;-72
2023/06/19 08:47:35;;;;;;;13.70;12.20;;;;;;;29.57;43.73;99558.05;105986;1254;68278;-74
2023/06/19 08:50:03;;;;;;;13.70;12.30;;;;;;;29.76;43.20;99553.77;105950;1255;72644;-73
2023/06/19 08:52:30;;;;;;;12.90;11.60;;;;;;;29.95;42.95;99554.09;106000;1254;60108;-72
2023/06/19 08:54:58;;;;;;;13.10;11.10;;;;;;;30.16;41.92;99559.34;105438;1256;59669;-72
2023/06/19 08:57:38;;;;;;;12.50;10.80;;;;;;;30.23;40.01;99554.72;106174;1257;74060;-73
2023/06/19 09:00:07;;;;;;;14.40;11.50;;;;;;;30.30;39.82;99549.95;106343;1256;70117;-74
2023/06/19 09:02:46;;;;;;;11.80;10.50;;;;;;;30.47;39.58;99550.70;106487;1260;72730;-72
2023/06/19 09:05:31;;;;;;;14.00;11.30;;;;;;;30.75;39.11;99551.63;106468;1258;59872;-74
2023/06/19 09:08:02;;;;;;;12.30;11.20;;;;;;;31.00;38.69;99547.80;106123;1255;59751;-72
2023/06/19 09:10:34;;;;;;;12.20;11.10;;;;;;;31.24;38.58;99550.98;106623;1256;71781;-73
2023/06/19 09:13:03;;;;;;;12.60;11.40;;;;;;;31.41;38.40;99544.38;106607;1254;68737;-73
2023/06/19 09:15:36;;;;;;;11.30;10.20;;;;;;;31.54;38.63;99543.53;106695;1256;71340;-72
2023/06/19 09:18:05;;;;;;;11.00;10.00;;;;;;;31.74;38.15;99548.75;106959;1256;59609;-75
2023/06/19 09:20:36;;;;;;;11.20;10.10;;;;;;;31.92;37.35;99544.74;107034;1258;59543;-72
2023/06/19 09:23:03;;;;;;;11.70;10.70;;;;;;;32.01;37.10;99548.10;107244;1258;72506;-75
2023/06/19 09:25:31;;;;;;;11.40;10.30;;;;;;;32.14;36.82;99544.20;107476;1255;68741;-73
2023/06/19 09:27:59;;;;;;;11.80;10.90;;;;;;;32.46;37.61;99537.52;106858;1256;71084;-71
2023/06/19 09:30:26;;;;;;;11.60;10.60;;;;;;;32.89;37.52;99533.57;106797;1256;59650;-75
2023/06/19 09:32:54;;;;;;;13.10;9.80;;;;;;;33.34;37.00;99534.71;107186;1256;59654;-75
2023/06/19 09:35:22;;;;;;;11.90;10.70;;;;;;;33.80;36.34;99539.75;106746;1260;71789;-72
2023/06/19 09:37:51;;;;;;;11.10;10.10;;;;;;;34.29;35.21;99540.77;106393;1258;69183;-74
2023/06/19 09:40:18;;;;;;;12.40;9.80;;;;;;;34.74;34.41;99533.98;107488;1256;72280;-72
2023/06/19 09:42:46;;;;;;;11.70;10.70;;;;;;;35.12;33.96;99528.52;107423;1258;61054;-71
2023/06/19 09:45:24;;;;;;;11.70;10.80;;;;;;;35.46;33.46;99529.02;106927;1256;59614;-75
2023/06/19 09:47:52;;;;;;;11.90;10.60;;;;;;;35.61;33.47;99522.05;107052;1256;64054;-73
2023/06/19 09:50:19;;;;;;;10.70;9.70;;;;;;;35.73;33.27;99524.55;106980;1254;60083;-75
2023/06/19 09:52:51;;;;;;;11.70;9.70;;;;;;;35.95;32.81;99529.17;107175;1256;63127;-74
2023/06/19 09:55:19;;;;;;;11.00;10.00;;;;;;;36.15;32.38;99524.09;107074;1256;59620;-72
2023/06/19 09:57:48;;;;;;;13.20;10.90;;;;;;;36.43;32.10;99519.60;107338;1254;59212;-72
2023/06/19 10:00:21;;;;;;;12.00;10.80;;;;;;;36.77;32.20;99514.55;106995;1254;62973;-75
2023/06/19 10:02:49;;;;;;;12.00;10.90;;;;;;;37.13;31.88;99522.83;107138;1254;61426;-75
2023/06/19 10:05:18;;;;;;;11.90;10.90;;;;;;;37.21;31.73;99521.88;106744;1255;73669;-74
2023/06/19 10:07:46;;;;;;;12.10;11.00;;;;;;;37.23;31.95;99514.95;106637;1264;60922;-74
2023/06/19 10:10:24;;;;;;;13.40;10.40;;;;;;;37.51;31.69;99513.05;107336;1259;59680;-75
2023/06/19 10:12:57;;;;;;;10.00;9.20;;;;;;;37.92;30.73;99513.31;107321;1255;64905;-74
2023/06/19 10:15:26;;;;;;;11.20;10.00;;;;;;;38.32;30.40;99510.84;106667;1256;61513;-73
2023/06/19 10:18:05;;;;;;;12.00;10.90;;;;;;;38.71;30.40;99506.25;105871;1256;63944;-73
2023/06/19 10:20:35;;;;;;;11.40;10.50;;;;;;;39.06;30.12;99506.94;106769;1254;59663;-72
2023/06/19 10:23:18;;;;;;;12.10;10.30;;;;;;;39.21;29.86;99504.84;107000;1255;59915;-75
2023/06/19 10:25:53;;;;;;;9.80;9.00;;;;;;;39.29;29.04;99506.67;107079;1254;65558;-72
2023/06/19 10:28:27;;;;;;;10.10;9.20;;;;;;;39.14;28.66;99498.30;106935;1258;60630;-73
2023/06/19 10:31:01;;;;;;;9.60;8.70;;;;;;;38.77;28.48;99496.06;106800;1256;62509;-73
2023/06/19 10:33:33;;;;;;;10.00;9.10;;;;;;;38.41;28.94;99490.52;106650;1256;59547;-76
2023/06/19 10:36:02;;;;;;;10.20;9.20;;;;;;;38.24;29.42;99493.38;106390;1256;59821;-72
2023/06/19 10:38:29;;;;;;;11.60;10.20;;;;;;;38.32;29.32;99492.21;106717;1256;65059;-75
2023/06/19 10:40:58;;;;;;;10.80;9.90;;;;;;;38.52;29.57;99488.08;106449;1255;60073;-75
2023/06/19 10:43:31;;;;;;;11.20;10.10;;;;;;;38.82;29.19;99482.38;106354;1257;62870;-73
2023/06/19 10:46:02;;;;;;;10.60;9.60;;;;;;;39.23;28.63;99484.16;106677;1256;59559;-76
2023/06/19 10:48:30;;;;;;;10.20;8.00;;;;;;;39.59;27.89;99483.44;106102;1256;59737;-75
2023/06/19 10:51:04;;;;;;;9.40;8.50;;;;;;;39.63;27.15;99486.13;106228;1256;66097;-74
2023/06/19 10:53:32;;;;;;;9.20;8.40;;;;;;;39.29;27.12;99487.21;106122;1259;62272;-75
2023/06/19 10:56:08;;;;;;;9.50;8.60;;;;;;;38.70;27.61;99483.31;106448;1253;64161;-74
2023/06/19 10:58:36;;;;;;;9.20;8.50;;;;;;;38.27;28.23;99477.73;106194;1259;60555;-75
2023/06/19 11:01:04;;;;;;;9.70;8.90;;;;;;;38.08;28.40;99476.27;106149;1259;60273;-71
2023/06/19 11:03:32;;;;;;;12.30;9.60;;;;;;;38.32;28.73;99481.83;105863;1256;66058;-74
2023/06/19 11:06:00;;;;;;;10.40;9.50;;;;;;;38.73;27.80;99483.14;105783;1261;68880;-75
2023/06/19 11:08:27;;;;;;;11.40;9.40;;;;;;;38.91;27.47;99477.58;105770;1257;63055;-76
2023/06/19 11:10:55;;;;;;;9.40;8.50;;;;;;;39.12;27.26;99474.91;105593;1261;60471;-74
2023/06/19 11:13:22;;;;;;;10.10;9.30;;;;;;;39.19;27.72;99473.55;105251;1258;60889;-75
2023/06/19 11:15:51;;;;;;;10.20;9.20;;;;;;;39.33;27.91;99471.52;105860;1258;66929;-76
2023/06/19 11:18:19;;;;;;;11.90;10.90;;;;;;;39.70;27.69;99474.16;105745;1256;61614;-75
2023/06/19 11:20:50;;;;;;;10.20;9.30;;;;;;;39.79;27.50;99473.36;105607;1260;64266;-76
2023/06/19 11:23:26;;;;;;;10.70;9.80;;;;;;;39.69;27.38;99472.56;105625;1261;60447;-76
2023/06/19 11:25:56;;;;;;;10.60;9.70;;;;;;;39.39;27.31;99470.59;105861;1258;60474;-76
2023/06/19 11:28:26;;;;;;;10.40;9.50;;;;;;;39.11;27.32;99484.59;105884;1255;63704;-74
2023/06/19 11:30:58;;;;;;;11.00;10.00;;;;;;;38.78;27.48;99483.82;105770;1256;60380;-74